sensor_id;sensor_type;location;lat;lon;timestamp;P1;durP1;ratioP1;P2;durP2;ratioP2
1987;SDS011;12775;46.994;15.498;2023-03-13T00:01:10;10.30;;;7.08;;
1987;SDS011;12775;46.994;15.498;2023-03-13T00:03:51;10.04;;;6.44;;
1987;SDS011;12775;46.994;15.498;2023-03-13T00:06:18;9.96;;;6.94;;
1987;SDS011;12775;46.994;15.498;2023-03-13T00:08:47;7.96;;;5.52;;
1987;SDS011;12775;46.994;15.498;2023-03-13T00:11:15;8.00;;;6.14;;
1987;SDS011;12775;46.994;15.498;2023-03-13T00:13:42;5.70;;;5.20;;
1987;SDS011;12775;46.994;15.498;2023-03-13T00:16:11;6.70;;;5.42;;
1987;SDS011;12775;46.994;15.498;2023-03-13T00:18:36;10.14;;;6.22;;
1987;SDS011;12775;46.994;15.498;2023-03-13T00:21:05;6.84;;;5.90;;
1987;SDS011;12775;46.994;15.498;2023-03-13T00:23:32;10.60;;;6.70;;
1987;SDS011;12775;46.994;15.498;2023-03-13T00:25:59;9.88;;;8.70;;
1987;SDS011;12775;46.994;15.498;2023-03-13T00:28:26;9.30;;;7.52;;
1987;SDS011;12775;46.994;15.498;2023-03-13T00:33:32;9.24;;;6.66;;
1987;SDS011;12775;46.994;15.498;2023-03-13T00:36:00;8.48;;;7.48;;
1987;SDS011;12775;46.994;15.498;2023-03-13T00:38:28;8.48;;;7.22;;
1987;SDS011;12775;46.994;15.498;2023-03-13T00:43:30;9.56;;;7.74;;
1987;SDS011;12775;46.994;15.498;2023-03-13T00:45:57;12.08;;;8.48;;
1987;SDS011;12775;46.994;15.498;2023-03-13T00:48:26;16.26;;;10.28;;
1987;SDS011;12775;46.994;15.498;2023-03-13T00:50:53;9.94;;;7.58;;
1987;SDS011;12775;46.994;15.498;2023-03-13T00:53:21;8.60;;;6.42;;
1987;SDS011;12775;46.994;15.498;2023-03-13T00:55:50;8.54;;;6.90;;
1987;SDS011;12775;46.994;15.498;2023-03-13T00:58:26;7.22;;;6.38;;
1987;SDS011;12775;46.994;15.498;2023-03-13T01:00:52;10.10;;;6.18;;
1987;SDS011;12775;46.994;15.498;2023-03-13T01:03:20;9.06;;;6.48;;
1987;SDS011;12775;46.994;15.498;2023-03-13T01:05:56;8.64;;;7.26;;
1987;SDS011;12775;46.994;15.498;2023-03-13T01:08:23;7.42;;;6.68;;
1987;SDS011;12775;46.994;15.498;2023-03-13T01:10:56;8.40;;;6.10;;
1987;SDS011;12775;46.994;15.498;2023-03-13T01:13:18;10.02;;;8.24;;
1987;SDS011;12775;46.994;15.498;2023-03-13T01:15:45;9.90;;;7.62;;
1987;SDS011;12775;46.994;15.498;2023-03-13T01:18:13;7.06;;;6.20;;
1987;SDS011;12775;46.994;15.498;2023-03-13T01:20:40;11.20;;;6.14;;
1987;SDS011;12775;46.994;15.498;2023-03-13T01:23:07;10.62;;;7.12;;
1987;SDS011;12775;46.994;15.498;2023-03-13T01:25:35;7.30;;;6.12;;
1987;SDS011;12775;46.994;15.498;2023-03-13T01:28:02;11.68;;;7.56;;
1987;SDS011;12775;46.994;15.498;2023-03-13T01:30:30;19.92;;;13.82;;
1987;SDS011;12775;46.994;15.498;2023-03-13T01:32:57;8.20;;;6.60;;
1987;SDS011;12775;46.994;15.498;2023-03-13T01:35:25;19.14;;;10.42;;
1987;SDS011;12775;46.994;15.498;2023-03-13T01:37:52;12.14;;;7.52;;
1987;SDS011;12775;46.994;15.498;2023-03-13T01:40:19;9.94;;;7.58;;
1987;SDS011;12775;46.994;15.498;2023-03-13T01:42:49;16.70;;;11.78;;
1987;SDS011;12775;46.994;15.498;2023-03-13T01:47:55;12.62;;;8.64;;
1987;SDS011;12775;46.994;15.498;2023-03-13T01:50:23;12.80;;;7.90;;
1987;SDS011;12775;46.994;15.498;2023-03-13T01:52:51;9.88;;;8.30;;
1987;SDS011;12775;46.994;15.498;2023-03-13T01:55:18;11.02;;;8.08;;
1987;SDS011;12775;46.994;15.498;2023-03-13T01:57:47;6.64;;;5.94;;
1987;SDS011;12775;46.994;15.498;2023-03-13T02:00:14;9.94;;;8.44;;
1987;SDS011;12775;46.994;15.498;2023-03-13T02:02:42;12.10;;;9.10;;
1987;SDS011;12775;46.994;15.498;2023-03-13T02:05:09;6.76;;;6.12;;
1987;SDS011;12775;46.994;15.498;2023-03-13T02:07:37;8.28;;;6.66;;
1987;SDS011;12775;46.994;15.498;2023-03-13T02:10:03;7.00;;;5.30;;
1987;SDS011;12775;46.994;15.498;2023-03-13T02:12:34;7.76;;;6.36;;
1987;SDS011;12775;46.994;15.498;2023-03-13T02:15:02;10.78;;;7.10;;
1987;SDS011;12775;46.994;15.498;2023-03-13T02:17:28;8.26;;;6.30;;
1987;SDS011;12775;46.994;15.498;2023-03-13T02:19:55;6.60;;;5.90;;
1987;SDS011;12775;46.994;15.498;2023-03-13T02:23:27;9.34;;;6.68;;
1987;SDS011;12775;46.994;15.498;2023-03-13T02:28:11;6.24;;;5.22;;
1987;SDS011;12775;46.994;15.498;2023-03-13T02:30:37;9.66;;;5.72;;
1987;SDS011;12775;46.994;15.498;2023-03-13T02:33:05;6.84;;;6.18;;
1987;SDS011;12775;46.994;15.498;2023-03-13T02:35:32;9.62;;;6.42;;
1987;SDS011;12775;46.994;15.498;2023-03-13T02:38:01;8.50;;;6.20;;
1987;SDS011;12775;46.994;15.498;2023-03-13T02:40:29;7.64;;;5.36;;
1987;SDS011;12775;46.994;15.498;2023-03-13T02:42:56;10.32;;;6.62;;
1987;SDS011;12775;46.994;15.498;2023-03-13T02:45:23;6.82;;;6.12;;
1987;SDS011;12775;46.994;15.498;2023-03-13T02:47:50;7.62;;;6.40;;
1987;SDS011;12775;46.994;15.498;2023-03-13T02:50:17;12.58;;;8.06;;
1987;SDS011;12775;46.994;15.498;2023-03-13T02:52:45;10.16;;;7.44;;
1987;SDS011;12775;46.994;15.498;2023-03-13T02:55:15;11.62;;;7.48;;
1987;SDS011;12775;46.994;15.498;2023-03-13T02:57:41;11.60;;;7.18;;
1987;SDS011;12775;46.994;15.498;2023-03-13T03:00:08;9.78;;;7.06;;
1987;SDS011;12775;46.994;15.498;2023-03-13T03:02:36;9.48;;;7.06;;
1987;SDS011;12775;46.994;15.498;2023-03-13T03:05:05;10.78;;;6.74;;
1987;SDS011;12775;46.994;15.498;2023-03-13T03:07:33;8.62;;;7.18;;
1987;SDS011;12775;46.994;15.498;2023-03-13T03:10:00;10.96;;;7.30;;
1987;SDS011;12775;46.994;15.498;2023-03-13T03:12:28;9.86;;;6.86;;
1987;SDS011;12775;46.994;15.498;2023-03-13T03:14:55;8.58;;;7.06;;
1987;SDS011;12775;46.994;15.498;2023-03-13T03:17:22;9.66;;;6.22;;
1987;SDS011;12775;46.994;15.498;2023-03-13T03:19:50;9.20;;;7.42;;
1987;SDS011;12775;46.994;15.498;2023-03-13T03:22:17;9.54;;;6.94;;
1987;SDS011;12775;46.994;15.498;2023-03-13T03:24:45;7.88;;;5.80;;
1987;SDS011;12775;46.994;15.498;2023-03-13T03:27:12;11.08;;;7.54;;
1987;SDS011;12775;46.994;15.498;2023-03-13T03:29:39;9.62;;;6.72;;
1987;SDS011;12775;46.994;15.498;2023-03-13T03:32:07;7.54;;;6.06;;
1987;SDS011;12775;46.994;15.498;2023-03-13T03:34:34;10.24;;;6.62;;
1987;SDS011;12775;46.994;15.498;2023-03-13T03:37:01;11.48;;;6.94;;
1987;SDS011;12775;46.994;15.498;2023-03-13T03:39:29;6.98;;;6.28;;
1987;SDS011;12775;46.994;15.498;2023-03-13T03:41:56;7.84;;;6.20;;
1987;SDS011;12775;46.994;15.498;2023-03-13T03:44:24;8.28;;;6.34;;
1987;SDS011;12775;46.994;15.498;2023-03-13T03:46:52;7.32;;;6.62;;
1987;SDS011;12775;46.994;15.498;2023-03-13T03:49:19;7.66;;;6.96;;
1987;SDS011;12775;46.994;15.498;2023-03-13T03:51:46;9.10;;;6.78;;
1987;SDS011;12775;46.994;15.498;2023-03-13T03:54:14;7.54;;;5.94;;
1987;SDS011;12775;46.994;15.498;2023-03-13T03:56:41;8.62;;;6.40;;
1987;SDS011;12775;46.994;15.498;2023-03-13T03:59:09;7.76;;;5.98;;
1987;SDS011;12775;46.994;15.498;2023-03-13T04:01:37;12.04;;;8.30;;
1987;SDS011;12775;46.994;15.498;2023-03-13T04:04:05;8.40;;;7.38;;
1987;SDS011;12775;46.994;15.498;2023-03-13T04:06:32;9.98;;;7.48;;
1987;SDS011;12775;46.994;15.498;2023-03-13T04:08:59;12.72;;;8.48;;
1987;SDS011;12775;46.994;15.498;2023-03-13T04:11:27;9.76;;;7.24;;
1987;SDS011;12775;46.994;15.498;2023-03-13T04:13:55;10.88;;;8.18;;
1987;SDS011;12775;46.994;15.498;2023-03-13T04:16:22;9.86;;;7.48;;
1987;SDS011;12775;46.994;15.498;2023-03-13T04:18:50;10.64;;;8.44;;
1987;SDS011;12775;46.994;15.498;2023-03-13T04:21:17;9.42;;;7.98;;
1987;SDS011;12775;46.994;15.498;2023-03-13T04:23:45;13.34;;;8.34;;
1987;SDS011;12775;46.994;15.498;2023-03-13T04:26:12;8.56;;;7.66;;
1987;SDS011;12775;46.994;15.498;2023-03-13T04:28:39;10.20;;;8.32;;
1987;SDS011;12775;46.994;15.498;2023-03-13T04:31:07;12.96;;;6.66;;
1987;SDS011;12775;46.994;15.498;2023-03-13T04:33:34;11.60;;;8.22;;
1987;SDS011;12775;46.994;15.498;2023-03-13T04:36:02;13.02;;;7.98;;
1987;SDS011;12775;46.994;15.498;2023-03-13T04:38:30;13.02;;;7.96;;
1987;SDS011;12775;46.994;15.498;2023-03-13T04:40:57;10.96;;;8.38;;
1987;SDS011;12775;46.994;15.498;2023-03-13T04:43:24;7.40;;;6.00;;
1987;SDS011;12775;46.994;15.498;2023-03-13T04:45:52;14.14;;;8.84;;
1987;SDS011;12775;46.994;15.498;2023-03-13T04:48:20;9.82;;;7.68;;
1987;SDS011;12775;46.994;15.498;2023-03-13T04:50:47;8.10;;;7.22;;
1987;SDS011;12775;46.994;15.498;2023-03-13T04:53:15;12.44;;;7.62;;
1987;SDS011;12775;46.994;15.498;2023-03-13T04:55:42;13.08;;;8.10;;
1987;SDS011;12775;46.994;15.498;2023-03-13T04:58:09;8.72;;;6.58;;
1987;SDS011;12775;46.994;15.498;2023-03-13T05:00:39;8.22;;;6.84;;
1987;SDS011;12775;46.994;15.498;2023-03-13T05:03:09;7.74;;;6.10;;
1987;SDS011;12775;46.994;15.498;2023-03-13T05:05:36;10.16;;;7.28;;
1987;SDS011;12775;46.994;15.498;2023-03-13T05:08:03;11.16;;;7.82;;
1987;SDS011;12775;46.994;15.498;2023-03-13T05:10:31;9.04;;;6.74;;
1987;SDS011;12775;46.994;15.498;2023-03-13T05:12:58;11.76;;;8.04;;
1987;SDS011;12775;46.994;15.498;2023-03-13T05:15:26;9.62;;;7.32;;
1987;SDS011;12775;46.994;15.498;2023-03-13T05:17:53;8.46;;;6.44;;
1987;SDS011;12775;46.994;15.498;2023-03-13T05:20:20;13.30;;;7.52;;
1987;SDS011;12775;46.994;15.498;2023-03-13T05:22:48;12.04;;;7.60;;
1987;SDS011;12775;46.994;15.498;2023-03-13T05:25:17;13.12;;;8.08;;
1987;SDS011;12775;46.994;15.498;2023-03-13T05:27:45;14.74;;;7.06;;
1987;SDS011;12775;46.994;15.498;2023-03-13T05:30:12;11.68;;;8.48;;
1987;SDS011;12775;46.994;15.498;2023-03-13T05:32:39;8.28;;;6.84;;
1987;SDS011;12775;46.994;15.498;2023-03-13T05:35:07;19.66;;;8.92;;
1987;SDS011;12775;46.994;15.498;2023-03-13T05:37:34;12.54;;;7.92;;
1987;SDS011;12775;46.994;15.498;2023-03-13T05:40:02;13.90;;;8.00;;
1987;SDS011;12775;46.994;15.498;2023-03-13T05:42:30;9.02;;;8.12;;
1987;SDS011;12775;46.994;15.498;2023-03-13T05:44:57;11.12;;;9.46;;
1987;SDS011;12775;46.994;15.498;2023-03-13T05:47:25;13.02;;;10.28;;
1987;SDS011;12775;46.994;15.498;2023-03-13T05:49:52;12.90;;;9.02;;
1987;SDS011;12775;46.994;15.498;2023-03-13T05:52:20;12.78;;;9.66;;
1987;SDS011;12775;46.994;15.498;2023-03-13T05:54:48;16.54;;;9.86;;
1987;SDS011;12775;46.994;15.498;2023-03-13T05:57:15;14.36;;;10.12;;
1987;SDS011;12775;46.994;15.498;2023-03-13T05:59:42;16.26;;;9.58;;
1987;SDS011;12775;46.994;15.498;2023-03-13T06:02:10;19.92;;;12.42;;
1987;SDS011;12775;46.994;15.498;2023-03-13T06:04:37;20.46;;;10.12;;
1987;SDS011;12775;46.994;15.498;2023-03-13T06:07:05;22.84;;;14.28;;
1987;SDS011;12775;46.994;15.498;2023-03-13T06:09:33;18.26;;;12.90;;
1987;SDS011;12775;46.994;15.498;2023-03-13T06:12:00;17.54;;;12.86;;
1987;SDS011;12775;46.994;15.498;2023-03-13T06:14:27;21.08;;;12.26;;
1987;SDS011;12775;46.994;15.498;2023-03-13T06:16:55;15.44;;;11.32;;
1987;SDS011;12775;46.994;15.498;2023-03-13T06:19:22;12.00;;;9.16;;
1987;SDS011;12775;46.994;15.498;2023-03-13T06:21:50;16.66;;;10.46;;
1987;SDS011;12775;46.994;15.498;2023-03-13T06:24:18;13.34;;;9.12;;
1987;SDS011;12775;46.994;15.498;2023-03-13T06:26:46;12.04;;;8.80;;
1987;SDS011;12775;46.994;15.498;2023-03-13T06:29:13;11.08;;;8.52;;
1987;SDS011;12775;46.994;15.498;2023-03-13T06:31:41;8.94;;;7.92;;
1987;SDS011;12775;46.994;15.498;2023-03-13T06:34:10;23.32;;;16.48;;
1987;SDS011;12775;46.994;15.498;2023-03-13T06:36:37;13.58;;;9.94;;
1987;SDS011;12775;46.994;15.498;2023-03-13T06:39:04;12.02;;;9.08;;
1987;SDS011;12775;46.994;15.498;2023-03-13T06:41:32;12.24;;;9.00;;
1987;SDS011;12775;46.994;15.498;2023-03-13T06:43:59;11.24;;;9.56;;
1987;SDS011;12775;46.994;15.498;2023-03-13T06:46:26;15.82;;;10.02;;
1987;SDS011;12775;46.994;15.498;2023-03-13T06:48:55;11.32;;;9.06;;
1987;SDS011;12775;46.994;15.498;2023-03-13T06:51:22;10.76;;;8.30;;
1987;SDS011;12775;46.994;15.498;2023-03-13T06:53:51;9.98;;;8.96;;
1987;SDS011;12775;46.994;15.498;2023-03-13T06:56:18;10.84;;;8.74;;
1987;SDS011;12775;46.994;15.498;2023-03-13T06:58:47;11.18;;;8.78;;
1987;SDS011;12775;46.994;15.498;2023-03-13T07:01:14;12.22;;;9.48;;
1987;SDS011;12775;46.994;15.498;2023-03-13T07:03:41;11.36;;;9.22;;
1987;SDS011;12775;46.994;15.498;2023-03-13T07:06:09;10.50;;;9.40;;
1987;SDS011;12775;46.994;15.498;2023-03-13T07:08:36;13.70;;;11.06;;
1987;SDS011;12775;46.994;15.498;2023-03-13T07:11:04;10.78;;;9.52;;
1987;SDS011;12775;46.994;15.498;2023-03-13T07:13:30;11.48;;;10.34;;
1987;SDS011;12775;46.994;15.498;2023-03-13T07:15:59;11.10;;;10.00;;
1987;SDS011;12775;46.994;15.498;2023-03-13T07:18:26;13.16;;;11.08;;
1987;SDS011;12775;46.994;15.498;2023-03-13T07:20:54;10.76;;;9.22;;
1987;SDS011;12775;46.994;15.498;2023-03-13T07:23:21;10.80;;;8.68;;
1987;SDS011;12775;46.994;15.498;2023-03-13T07:25:53;15.40;;;10.04;;
1987;SDS011;12775;46.994;15.498;2023-03-13T07:28:21;14.06;;;10.04;;
1987;SDS011;12775;46.994;15.498;2023-03-13T07:30:48;11.74;;;9.82;;
1987;SDS011;12775;46.994;15.498;2023-03-13T07:33:16;12.68;;;10.08;;
1987;SDS011;12775;46.994;15.498;2023-03-13T07:35:48;13.74;;;10.32;;
1987;SDS011;12775;46.994;15.498;2023-03-13T07:38:15;14.78;;;10.00;;
1987;SDS011;12775;46.994;15.498;2023-03-13T07:40:47;15.34;;;10.66;;
1987;SDS011;12775;46.994;15.498;2023-03-13T07:43:14;10.72;;;9.62;;
1987;SDS011;12775;46.994;15.498;2023-03-13T07:45:50;17.00;;;10.64;;
1987;SDS011;12775;46.994;15.498;2023-03-13T07:48:17;14.32;;;9.94;;
1987;SDS011;12775;46.994;15.498;2023-03-13T07:50:45;14.78;;;9.80;;
1987;SDS011;12775;46.994;15.498;2023-03-13T07:53:12;12.78;;;9.74;;
1987;SDS011;12775;46.994;15.498;2023-03-13T07:55:39;13.80;;;9.82;;
1987;SDS011;12775;46.994;15.498;2023-03-13T07:58:07;19.76;;;13.54;;
1987;SDS011;12775;46.994;15.498;2023-03-13T08:00:34;21.20;;;12.94;;
1987;SDS011;12775;46.994;15.498;2023-03-13T08:03:02;24.56;;;12.98;;
1987;SDS011;12775;46.994;15.498;2023-03-13T08:05:29;13.46;;;11.04;;
1987;SDS011;12775;46.994;15.498;2023-03-13T08:07:56;18.48;;;12.78;;
1987;SDS011;12775;46.994;15.498;2023-03-13T08:10:24;13.46;;;12.08;;
1987;SDS011;12775;46.994;15.498;2023-03-13T08:12:51;20.70;;;13.02;;
1987;SDS011;12775;46.994;15.498;2023-03-13T08:15:18;22.58;;;11.90;;
1987;SDS011;12775;46.994;15.498;2023-03-13T08:17:46;13.68;;;11.52;;
1987;SDS011;12775;46.994;15.498;2023-03-13T08:20:13;11.26;;;10.14;;
1987;SDS011;12775;46.994;15.498;2023-03-13T08:22:40;13.30;;;9.94;;
1987;SDS011;12775;46.994;15.498;2023-03-13T08:25:08;15.44;;;10.66;;
1987;SDS011;12775;46.994;15.498;2023-03-13T08:27:35;13.58;;;10.36;;
1987;SDS011;12775;46.994;15.498;2023-03-13T08:30:03;15.06;;;10.78;;
1987;SDS011;12775;46.994;15.498;2023-03-13T08:32:32;13.74;;;10.56;;
1987;SDS011;12775;46.994;15.498;2023-03-13T08:34:59;11.58;;;9.42;;
1987;SDS011;12775;46.994;15.498;2023-03-13T08:37:27;13.00;;;9.52;;
1987;SDS011;12775;46.994;15.498;2023-03-13T08:39:55;10.44;;;9.44;;
1987;SDS011;12775;46.994;15.498;2023-03-13T08:42:22;12.10;;;8.68;;
1987;SDS011;12775;46.994;15.498;2023-03-13T08:44:49;12.40;;;9.44;;
1987;SDS011;12775;46.994;15.498;2023-03-13T08:47:17;23.00;;;10.28;;
1987;SDS011;12775;46.994;15.498;2023-03-13T08:49:44;9.88;;;8.26;;
1987;SDS011;12775;46.994;15.498;2023-03-13T08:52:12;8.52;;;7.76;;
1987;SDS011;12775;46.994;15.498;2023-03-13T08:54:39;10.96;;;8.64;;
1987;SDS011;12775;46.994;15.498;2023-03-13T08:57:06;11.20;;;8.54;;
1987;SDS011;12775;46.994;15.498;2023-03-13T08:59:34;10.04;;;9.00;;
1987;SDS011;12775;46.994;15.498;2023-03-13T09:02:01;9.52;;;8.54;;
1987;SDS011;12775;46.994;15.498;2023-03-13T09:04:28;9.18;;;7.24;;
1987;SDS011;12775;46.994;15.498;2023-03-13T09:06:57;13.32;;;8.90;;
1987;SDS011;12775;46.994;15.498;2023-03-13T09:09:24;13.38;;;8.94;;
1987;SDS011;12775;46.994;15.498;2023-03-13T09:11:52;8.78;;;7.88;;
1987;SDS011;12775;46.994;15.498;2023-03-13T09:14:19;9.00;;;7.80;;
1987;SDS011;12775;46.994;15.498;2023-03-13T09:16:47;7.44;;;6.62;;
1987;SDS011;12775;46.994;15.498;2023-03-13T09:19:15;10.50;;;7.86;;
1987;SDS011;12775;46.994;15.498;2023-03-13T09:21:42;10.56;;;7.60;;
1987;SDS011;12775;46.994;15.498;2023-03-13T09:24:09;11.98;;;8.82;;
1987;SDS011;12775;46.994;15.498;2023-03-13T09:26:37;10.56;;;8.00;;
1987;SDS011;12775;46.994;15.498;2023-03-13T09:29:04;8.40;;;7.54;;
1987;SDS011;12775;46.994;15.498;2023-03-13T09:31:32;7.54;;;6.20;;
1987;SDS011;12775;46.994;15.498;2023-03-13T09:33:59;8.18;;;6.82;;
1987;SDS011;12775;46.994;15.498;2023-03-13T09:36:26;8.86;;;6.38;;
1987;SDS011;12775;46.994;15.498;2023-03-13T09:38:55;6.48;;;5.32;;
1987;SDS011;12775;46.994;15.498;2023-03-13T09:41:23;5.86;;;5.06;;
1987;SDS011;12775;46.994;15.498;2023-03-13T09:43:57;6.40;;;5.74;;
1987;SDS011;12775;46.994;15.498;2023-03-13T09:46:40;7.80;;;6.80;;
1987;SDS011;12775;46.994;15.498;2023-03-13T09:49:11;7.86;;;5.66;;
1987;SDS011;12775;46.994;15.498;2023-03-13T09:51:36;6.92;;;5.56;;
1987;SDS011;12775;46.994;15.498;2023-03-13T09:54:06;4.60;;;4.14;;
1987;SDS011;12775;46.994;15.498;2023-03-13T09:56:36;9.20;;;5.58;;
1987;SDS011;12775;46.994;15.498;2023-03-13T09:59:05;5.64;;;5.00;;
1987;SDS011;12775;46.994;15.498;2023-03-13T10:01:32;7.16;;;5.74;;
1987;SDS011;12775;46.994;15.498;2023-03-13T10:04:01;6.08;;;5.50;;
1987;SDS011;12775;46.994;15.498;2023-03-13T10:06:27;7.10;;;5.58;;
1987;SDS011;12775;46.994;15.498;2023-03-13T10:08:54;5.44;;;4.94;;
1987;SDS011;12775;46.994;15.498;2023-03-13T10:11:24;4.88;;;4.48;;
1987;SDS011;12775;46.994;15.498;2023-03-13T10:14:29;8.02;;;4.66;;
1987;SDS011;12775;46.994;15.498;2023-03-13T10:16:42;5.46;;;4.30;;
1987;SDS011;12775;46.994;15.498;2023-03-13T10:19:13;5.66;;;4.48;;
1987;SDS011;12775;46.994;15.498;2023-03-13T10:21:41;4.70;;;4.12;;
1987;SDS011;12775;46.994;15.498;2023-03-13T10:24:13;4.50;;;4.10;;
1987;SDS011;12775;46.994;15.498;2023-03-13T10:26:39;5.26;;;4.76;;
1987;SDS011;12775;46.994;15.498;2023-03-13T10:32:00;4.68;;;4.06;;
1987;SDS011;12775;46.994;15.498;2023-03-13T10:34:32;4.98;;;4.48;;
1987;SDS011;12775;46.994;15.498;2023-03-13T10:36:58;6.50;;;5.20;;
1987;SDS011;12775;46.994;15.498;2023-03-13T10:39:26;6.28;;;4.72;;
1987;SDS011;12775;46.994;15.498;2023-03-13T10:41:56;5.52;;;5.00;;
1987;SDS011;12775;46.994;15.498;2023-03-13T10:44:29;5.34;;;4.84;;
1987;SDS011;12775;46.994;15.498;2023-03-13T10:46:52;6.62;;;5.92;;
1987;SDS011;12775;46.994;15.498;2023-03-13T10:49:21;7.20;;;5.00;;
1987;SDS011;12775;46.994;15.498;2023-03-13T10:51:48;5.82;;;5.02;;
1987;SDS011;12775;46.994;15.498;2023-03-13T10:56:50;4.82;;;4.42;;
1987;SDS011;12775;46.994;15.498;2023-03-13T10:59:21;4.72;;;4.32;;
1987;SDS011;12775;46.994;15.498;2023-03-13T11:01:48;5.30;;;4.22;;
1987;SDS011;12775;46.994;15.498;2023-03-13T11:04:18;4.42;;;4.02;;
1987;SDS011;12775;46.994;15.498;2023-03-13T11:06:49;4.22;;;3.80;;
1987;SDS011;12775;46.994;15.498;2023-03-13T11:09:23;5.42;;;4.92;;
1987;SDS011;12775;46.994;15.498;2023-03-13T11:11:52;5.50;;;4.52;;
1987;SDS011;12775;46.994;15.498;2023-03-13T11:14:22;5.50;;;4.50;;
1987;SDS011;12775;46.994;15.498;2023-03-13T11:16:50;4.60;;;4.20;;
1987;SDS011;12775;46.994;15.498;2023-03-13T11:19:23;7.16;;;5.54;;
1987;SDS011;12775;46.994;15.498;2023-03-13T11:22:06;5.32;;;4.82;;
1987;SDS011;12775;46.994;15.498;2023-03-13T11:24:49;4.98;;;4.36;;
1987;SDS011;12775;46.994;15.498;2023-03-13T11:27:35;4.02;;;3.70;;
1987;SDS011;12775;46.994;15.498;2023-03-13T11:30:06;4.74;;;3.84;;
1987;SDS011;12775;46.994;15.498;2023-03-13T11:32:37;5.98;;;4.36;;
1987;SDS011;12775;46.994;15.498;2023-03-13T11:35:06;4.70;;;4.04;;
1987;SDS011;12775;46.994;15.498;2023-03-13T11:37:33;4.36;;;3.76;;
1987;SDS011;12775;46.994;15.498;2023-03-13T11:40:17;5.10;;;4.68;;
1987;SDS011;12775;46.994;15.498;2023-03-13T11:42:56;3.72;;;3.42;;
1987;SDS011;12775;46.994;15.498;2023-03-13T11:45:44;4.34;;;3.64;;
1987;SDS011;12775;46.994;15.498;2023-03-13T11:51:05;4.20;;;3.74;;
1987;SDS011;12775;46.994;15.498;2023-03-13T11:56:26;5.14;;;3.90;;
1987;SDS011;12775;46.994;15.498;2023-03-13T11:59:07;5.40;;;4.82;;
1987;SDS011;12775;46.994;15.498;2023-03-13T12:01:42;4.86;;;4.32;;
1987;SDS011;12775;46.994;15.498;2023-03-13T12:04:16;6.94;;;4.56;;
1987;SDS011;12775;46.994;15.498;2023-03-13T12:06:46;3.62;;;3.32;;
1987;SDS011;12775;46.994;15.498;2023-03-13T12:09:14;4.10;;;3.70;;
1987;SDS011;12775;46.994;15.498;2023-03-13T12:11:47;3.92;;;3.40;;
1987;SDS011;12775;46.994;15.498;2023-03-13T12:14:17;5.78;;;4.50;;
1987;SDS011;12775;46.994;15.498;2023-03-13T12:16:45;4.92;;;3.78;;
1987;SDS011;12775;46.994;15.498;2023-03-13T12:19:11;4.08;;;3.70;;
1987;SDS011;12775;46.994;15.498;2023-03-13T12:21:41;5.46;;;4.22;;
1987;SDS011;12775;46.994;15.498;2023-03-13T12:27:04;4.12;;;3.70;;
1987;SDS011;12775;46.994;15.498;2023-03-13T12:32:26;6.44;;;4.20;;
1987;SDS011;12775;46.994;15.498;2023-03-13T12:34:58;5.52;;;4.16;;
1987;SDS011;12775;46.994;15.498;2023-03-13T12:37:29;4.04;;;3.56;;
1987;SDS011;12775;46.994;15.498;2023-03-13T12:40:18;6.88;;;4.54;;
1987;SDS011;12775;46.994;15.498;2023-03-13T12:42:57;3.80;;;3.50;;
1987;SDS011;12775;46.994;15.498;2023-03-13T12:45:26;8.44;;;4.68;;
1987;SDS011;12775;46.994;15.498;2023-03-13T12:48:01;4.44;;;3.90;;
1987;SDS011;12775;46.994;15.498;2023-03-13T12:54:12;5.40;;;4.80;;
1987;SDS011;12775;46.994;15.498;2023-03-13T12:55:53;4.50;;;3.72;;
1987;SDS011;12775;46.994;15.498;2023-03-13T12:58:25;4.24;;;3.84;;
1987;SDS011;12775;46.994;15.498;2023-03-13T13:00:52;4.54;;;4.14;;
1987;SDS011;12775;46.994;15.498;2023-03-13T13:03:26;5.96;;;4.26;;
1987;SDS011;12775;46.994;15.498;2023-03-13T13:06:06;5.92;;;4.90;;
1987;SDS011;12775;46.994;15.498;2023-03-13T13:08:36;4.12;;;3.82;;
1987;SDS011;12775;46.994;15.498;2023-03-13T13:13:42;3.02;;;2.72;;
1987;SDS011;12775;46.994;15.498;2023-03-13T13:16:10;4.76;;;4.02;;
1987;SDS011;12775;46.994;15.498;2023-03-13T13:18:37;7.12;;;3.38;;
1987;SDS011;12775;46.994;15.498;2023-03-13T13:21:18;3.60;;;3.12;;
1987;SDS011;12775;46.994;15.498;2023-03-13T13:23:44;3.90;;;3.54;;
1987;SDS011;12775;46.994;15.498;2023-03-13T13:31:53;5.74;;;3.90;;
1987;SDS011;12775;46.994;15.498;2023-03-13T13:42:37;5.00;;;3.58;;
1987;SDS011;12775;46.994;15.498;2023-03-13T13:45:17;4.62;;;3.66;;
1987;SDS011;12775;46.994;15.498;2023-03-13T13:47:39;4.16;;;3.30;;
1987;SDS011;12775;46.994;15.498;2023-03-13T13:50:26;4.00;;;3.62;;
1987;SDS011;12775;46.994;15.498;2023-03-13T13:52:53;3.52;;;3.16;;
1987;SDS011;12775;46.994;15.498;2023-03-13T13:58:13;4.08;;;3.52;;
1987;SDS011;12775;46.994;15.498;2023-03-13T14:00:41;3.70;;;3.40;;
1987;SDS011;12775;46.994;15.498;2023-03-13T14:03:42;3.86;;;3.46;;
1987;SDS011;12775;46.994;15.498;2023-03-13T14:08:37;6.92;;;3.22;;
1987;SDS011;12775;46.994;15.498;2023-03-13T14:11:07;4.00;;;3.00;;
1987;SDS011;12775;46.994;15.498;2023-03-13T14:13:39;4.32;;;3.92;;
1987;SDS011;12775;46.994;15.498;2023-03-13T14:16:19;4.56;;;4.16;;
1987;SDS011;12775;46.994;15.498;2023-03-13T14:18:46;4.16;;;3.76;;
1987;SDS011;12775;46.994;15.498;2023-03-13T14:21:13;4.40;;;4.00;;
1987;SDS011;12775;46.994;15.498;2023-03-13T14:23:42;3.90;;;3.60;;
1987;SDS011;12775;46.994;15.498;2023-03-13T14:26:10;4.90;;;3.24;;
1987;SDS011;12775;46.994;15.498;2023-03-13T14:28:41;4.22;;;3.28;;
1987;SDS011;12775;46.994;15.498;2023-03-13T14:31:08;7.98;;;4.44;;
1987;SDS011;12775;46.994;15.498;2023-03-13T14:33:35;4.14;;;3.38;;
1987;SDS011;12775;46.994;15.498;2023-03-13T14:36:03;6.40;;;4.10;;
1987;SDS011;12775;46.994;15.498;2023-03-13T14:38:30;4.82;;;4.32;;
1987;SDS011;12775;46.994;15.498;2023-03-13T14:40:58;4.58;;;4.10;;
1987;SDS011;12775;46.994;15.498;2023-03-13T14:43:31;5.52;;;3.80;;
1987;SDS011;12775;46.994;15.498;2023-03-13T14:45:58;3.94;;;3.56;;
1987;SDS011;12775;46.994;15.498;2023-03-13T14:48:26;4.32;;;3.34;;
1987;SDS011;12775;46.994;15.498;2023-03-13T14:50:59;4.76;;;3.66;;
1987;SDS011;12775;46.994;15.498;2023-03-13T14:53:27;3.22;;;2.86;;
1987;SDS011;12775;46.994;15.498;2023-03-13T14:56:07;4.10;;;3.70;;
1987;SDS011;12775;46.994;15.498;2023-03-13T14:58:27;5.22;;;3.90;;
1987;SDS011;12775;46.994;15.498;2023-03-13T15:00:55;4.48;;;3.62;;
1987;SDS011;12775;46.994;15.498;2023-03-13T15:03:23;7.60;;;4.08;;
1987;SDS011;12775;46.994;15.498;2023-03-13T15:08:44;5.48;;;3.90;;
1987;SDS011;12775;46.994;15.498;2023-03-13T15:11:17;6.30;;;3.72;;
1987;SDS011;12775;46.994;15.498;2023-03-13T15:14:00;6.76;;;3.90;;
1987;SDS011;12775;46.994;15.498;2023-03-13T15:16:28;4.02;;;3.46;;
1987;SDS011;12775;46.994;15.498;2023-03-13T15:18:55;6.66;;;4.06;;
1987;SDS011;12775;46.994;15.498;2023-03-13T15:21:25;4.44;;;3.88;;
1987;SDS011;12775;46.994;15.498;2023-03-13T15:23:53;5.16;;;4.06;;
1987;SDS011;12775;46.994;15.498;2023-03-13T15:26:19;4.42;;;3.64;;
1987;SDS011;12775;46.994;15.498;2023-03-13T15:28:46;16.30;;;5.06;;
1987;SDS011;12775;46.994;15.498;2023-03-13T15:31:13;6.92;;;5.54;;
1987;SDS011;12775;46.994;15.498;2023-03-13T15:33:39;8.92;;;4.48;;
1987;SDS011;12775;46.994;15.498;2023-03-13T15:36:09;6.10;;;3.94;;
1987;SDS011;12775;46.994;15.498;2023-03-13T15:38:36;5.98;;;3.76;;
1987;SDS011;12775;46.994;15.498;2023-03-13T15:41:03;4.58;;;4.20;;
1987;SDS011;12775;46.994;15.498;2023-03-13T15:43:31;6.24;;;3.50;;
1987;SDS011;12775;46.994;15.498;2023-03-13T15:45:59;5.32;;;3.90;;